sensor_id;sensor_type;location;lat;lon;timestamp;pressure;altitude;pressure_sealevel;temperature;humidity
20656;BME280;10487;53.320;8.672;2023-04-19T00:01:17;102899.59;;;4.78;50.11
20656;BME280;10487;53.320;8.672;2023-04-19T00:04:20;102891.72;;;4.73;50.24
20656;BME280;10487;53.320;8.672;2023-04-19T00:07:22;102899.72;;;4.72;50.22
20656;BME280;10487;53.320;8.672;2023-04-19T00:10:25;102896.25;;;4.67;50.24
20656;BME280;10487;53.320;8.672;2023-04-19T00:13:26;102894.53;;;4.63;50.06
20656;BME280;10487;53.320;8.672;2023-04-19T00:16:28;102894.59;;;4.58;50.13
20656;BME280;10487;53.320;8.672;2023-04-19T00:19:30;102885.88;;;4.55;50.16
20656;BME280;10487;53.320;8.672;2023-04-19T00:22:31;102891.19;;;4.52;50.14
20656;BME280;10487;53.320;8.672;2023-04-19T00:25:33;102887.69;;;4.50;50.12
20656;BME280;10487;53.320;8.672;2023-04-19T00:28:35;102878.06;;;4.46;50.20
20656;BME280;10487;53.320;8.672;2023-04-19T00:31:36;102875.44;;;4.43;50.11
20656;BME280;10487;53.320;8.672;2023-04-19T00:34:40;102876.41;;;4.39;50.02
20656;BME280;10487;53.320;8.672;2023-04-19T00:37:41;102877.31;;;4.36;50.09
20656;BME280;10487;53.320;8.672;2023-04-19T00:40:43;102878.25;;;4.32;50.20
20656;BME280;10487;53.320;8.672;2023-04-19T00:43:44;102872.13;;;4.30;50.30
20656;BME280;10487;53.320;8.672;2023-04-19T00:46:46;102877.41;;;4.30;50.01
20656;BME280;10487;53.320;8.672;2023-04-19T00:49:48;102881.81;;;4.30;50.27
20656;BME280;10487;53.320;8.672;2023-04-19T00:52:51;102875.63;;;4.31;50.19
20656;BME280;10487;53.320;8.672;2023-04-19T00:55:56;102874.78;;;4.30;50.13
20656;BME280;10487;53.320;8.672;2023-04-19T00:59:01;102867.75;;;4.28;50.16
20656;BME280;10487;53.320;8.672;2023-04-19T01:02:03;102873.97;;;4.25;50.18
20656;BME280;10487;53.320;8.672;2023-04-19T01:05:05;102869.63;;;4.20;50.07
20656;BME280;10487;53.320;8.672;2023-04-19T01:08:06;102872.34;;;4.13;50.15
20656;BME280;10487;53.320;8.672;2023-04-19T01:11:09;102871.50;;;4.11;50.15
20656;BME280;10487;53.320;8.672;2023-04-19T01:14:10;102871.53;;;4.10;50.17
20656;BME280;10487;53.320;8.672;2023-04-19T01:17:12;102872.44;;;4.07;50.18
20656;BME280;10487;53.320;8.672;2023-04-19T01:20:14;102864.59;;;4.03;50.16
20656;BME280;10487;53.320;8.672;2023-04-19T01:23:15;102860.22;;;3.99;50.28
20656;BME280;10487;53.320;8.672;2023-04-19T01:26:17;102857.63;;;3.94;50.09
20656;BME280;10487;53.320;8.672;2023-04-19T01:29:19;102864.75;;;3.89;50.23
20656;BME280;10487;53.320;8.672;2023-04-19T01:32:22;102862.13;;;3.86;50.08
20656;BME280;10487;53.320;8.672;2023-04-19T01:35:25;102864.81;;;3.85;50.23
20656;BME280;10487;53.320;8.672;2023-04-19T01:38:27;102864.78;;;3.86;50.17
20656;BME280;10487;53.320;8.672;2023-04-19T01:41:28;102863.91;;;3.87;50.08
20656;BME280;10487;53.320;8.672;2023-04-19T01:44:31;102859.50;;;3.88;50.08
20656;BME280;10487;53.320;8.672;2023-04-19T01:47:32;102871.78;;;3.89;50.15
20656;BME280;10487;53.320;8.672;2023-04-19T01:50:34;102873.63;;;3.85;50.08
20656;BME280;10487;53.320;8.672;2023-04-19T01:53:36;102874.56;;;3.80;50.01
20656;BME280;10487;53.320;8.672;2023-04-19T01:56:37;102869.34;;;3.75;49.96
20656;BME280;10487;53.320;8.672;2023-04-19T01:59:39;102872.06;;;3.66;50.36
20656;BME280;10487;53.320;8.672;2023-04-19T02:02:40;102867.78;;;3.56;50.27
20656;BME280;10487;53.320;8.672;2023-04-19T02:05:42;102867.88;;;3.47;50.05
20656;BME280;10487;53.320;8.672;2023-04-19T02:08:44;102870.56;;;3.41;50.13
20656;BME280;10487;53.320;8.672;2023-04-19T02:11:45;102867.13;;;3.34;50.36
20656;BME280;10487;53.320;8.672;2023-04-19T02:14:47;102872.44;;;3.33;50.26
20656;BME280;10487;53.320;8.672;2023-04-19T02:17:49;102868.94;;;3.32;50.36
20656;BME280;10487;53.320;8.672;2023-04-19T02:20:51;102870.69;;;3.33;50.15
20656;BME280;10487;53.320;8.672;2023-04-19T02:23:52;102866.25;;;3.34;50.28
20656;BME280;10487;53.320;8.672;2023-04-19T02:26:54;102862.78;;;3.33;50.38
20656;BME280;10487;53.320;8.672;2023-04-19T02:29:55;102859.25;;;3.33;50.37
20656;BME280;10487;53.320;8.672;2023-04-19T02:32:57;102863.69;;;3.29;50.14
20656;BME280;10487;53.320;8.672;2023-04-19T02:35:59;102862.81;;;3.26;50.10
20656;BME280;10487;53.320;8.672;2023-04-19T02:39:00;102860.19;;;3.21;50.04
20656;BME280;10487;53.320;8.672;2023-04-19T02:42:02;102855.88;;;3.16;50.38
20656;BME280;10487;53.320;8.672;2023-04-19T02:45:04;102854.16;;;3.13;50.21
20656;BME280;10487;53.320;8.672;2023-04-19T02:48:06;102856.81;;;3.10;50.12
20656;BME280;10487;53.320;8.672;2023-04-19T02:51:13;102862.06;;;3.09;50.38
20656;BME280;10487;53.320;8.672;2023-04-19T02:54:15;102863.91;;;3.04;50.32
20656;BME280;10487;53.320;8.672;2023-04-19T02:57:17;102859.53;;;3.00;50.49
20656;BME280;10487;53.320;8.672;2023-04-19T03:00:19;102857.81;;;2.96;50.18
20656;BME280;10487;53.320;8.672;2023-04-19T03:03:21;102856.97;;;2.94;50.18
20656;BME280;10487;53.320;8.672;2023-04-19T03:06:22;102859.59;;;2.94;50.16
20656;BME280;10487;53.320;8.672;2023-04-19T03:09:24;102856.97;;;2.94;50.29
20656;BME280;10487;53.320;8.672;2023-04-19T03:12:25;102855.19;;;2.94;50.35
20656;BME280;10487;53.320;8.672;2023-04-19T03:15:27;102854.31;;;2.94;50.31
20656;BME280;10487;53.320;8.672;2023-04-19T03:18:29;102848.16;;;2.92;50.06
20656;BME280;10487;53.320;8.672;2023-04-19T03:21:31;102851.69;;;2.92;50.32
20656;BME280;10487;53.320;8.672;2023-04-19T03:24:32;102848.16;;;2.92;50.03
20656;BME280;10487;53.320;8.672;2023-04-19T03:27:38;102849.09;;;2.88;50.24
20656;BME280;10487;53.320;8.672;2023-04-19T03:30:39;102843.84;;;2.84;50.08
20656;BME280;10487;53.320;8.672;2023-04-19T03:33:41;102849.13;;;2.81;50.15
20656;BME280;10487;53.320;8.672;2023-04-19T03:36:42;102847.44;;;2.76;50.36
20656;BME280;10487;53.320;8.672;2023-04-19T03:39:44;102842.22;;;2.68;50.30
20656;BME280;10487;53.320;8.672;2023-04-19T03:42:46;102852.81;;;2.59;50.24
20656;BME280;10487;53.320;8.672;2023-04-19T03:45:47;102852.91;;;2.50;50.18
20656;BME280;10487;53.320;8.672;2023-04-19T03:48:49;102848.56;;;2.43;50.26
20656;BME280;10487;53.320;8.672;2023-04-19T03:51:51;102852.13;;;2.38;50.34
20656;BME280;10487;53.320;8.672;2023-04-19T03:54:53;102844.25;;;2.32;50.23
20656;BME280;10487;53.320;8.672;2023-04-19T03:57:54;102849.53;;;2.27;50.42
20656;BME280;10487;53.320;8.672;2023-04-19T04:00:58;102850.44;;;2.23;50.35
20656;BME280;10487;53.320;8.672;2023-04-19T04:04:00;102852.22;;;2.19;50.35
20656;BME280;10487;53.320;8.672;2023-04-19T04:07:05;102847.00;;;2.16;50.57
20656;BME280;10487;53.320;8.672;2023-04-19T04:10:07;102845.22;;;2.15;50.44
20656;BME280;10487;53.320;8.672;2023-04-19T04:13:09;102847.00;;;2.13;50.35
20656;BME280;10487;53.320;8.672;2023-04-19T04:16:10;102849.63;;;2.12;50.75
20656;BME280;10487;53.320;8.672;2023-04-19T04:19:12;102851.41;;;2.08;50.31
20656;BME280;10487;53.320;8.672;2023-04-19T04:22:15;102848.78;;;2.05;50.62
20656;BME280;10487;53.320;8.672;2023-04-19T04:25:16;102857.59;;;2.04;50.60
20656;BME280;10487;53.320;8.672;2023-04-19T04:28:18;102859.31;;;2.05;50.60
20656;BME280;10487;53.320;8.672;2023-04-19T04:31:19;102855.81;;;2.06;50.71
20656;BME280;10487;53.320;8.672;2023-04-19T04:34:21;102856.69;;;2.08;50.39
20656;BME280;10487;53.320;8.672;2023-04-19T04:37:23;102854.03;;;2.10;50.60
20656;BME280;10487;53.320;8.672;2023-04-19T04:40:26;102855.78;;;2.11;50.42
20656;BME280;10487;53.320;8.672;2023-04-19T04:43:28;102847.88;;;2.14;50.56
20656;BME280;10487;53.320;8.672;2023-04-19T04:46:30;102848.72;;;2.17;50.33
20656;BME280;10487;53.320;8.672;2023-04-19T04:49:31;102849.59;;;2.19;50.52
20656;BME280;10487;53.320;8.672;2023-04-19T04:52:33;102846.09;;;2.19;50.39
20656;BME280;10487;53.320;8.672;2023-04-19T04:55:35;102860.13;;;2.19;50.38
20656;BME280;10487;53.320;8.672;2023-04-19T04:58:36;102854.84;;;2.19;50.70
20656;BME280;10487;53.320;8.672;2023-04-19T05:01:38;102863.66;;;2.18;50.44
20656;BME280;10487;53.320;8.672;2023-04-19T05:04:39;102861.00;;;2.17;50.60
20656;BME280;10487;53.320;8.672;2023-04-19T05:07:41;102855.75;;;2.17;50.73
20656;BME280;10487;53.320;8.672;2023-04-19T05:10:43;102860.13;;;2.18;50.49
20656;BME280;10487;53.320;8.672;2023-04-19T05:13:45;102854.88;;;2.18;50.48
20656;BME280;10487;53.320;8.672;2023-04-19T05:16:46;102861.03;;;2.18;50.38
20656;BME280;10487;53.320;8.672;2023-04-19T05:19:48;102854.00;;;2.19;50.67
20656;BME280;10487;53.320;8.672;2023-04-19T05:22:50;102862.75;;;2.21;50.64
20656;BME280;10487;53.320;8.672;2023-04-19T05:25:51;102866.25;;;2.26;50.45
20656;BME280;10487;53.320;8.672;2023-04-19T05:28:53;102864.44;;;2.33;50.44
20656;BME280;10487;53.320;8.672;2023-04-19T05:31:54;102866.16;;;2.41;50.62
20656;BME280;10487;53.320;8.672;2023-04-19T05:34:57;102867.84;;;2.51;50.63
20656;BME280;10487;53.320;8.672;2023-04-19T05:37:59;102867.72;;;2.65;50.37
20656;BME280;10487;53.320;8.672;2023-04-19T05:41:02;102864.13;;;2.76;50.61
20656;BME280;10487;53.320;8.672;2023-04-19T05:44:04;102857.88;;;2.88;50.50
20656;BME280;10487;53.320;8.672;2023-04-19T05:47:05;102857.75;;;3.03;50.39
20656;BME280;10487;53.320;8.672;2023-04-19T05:50:07;102852.31;;;3.17;50.34
20656;BME280;10487;53.320;8.672;2023-04-19T05:53:09;102861.94;;;3.28;50.52
20656;BME280;10487;53.320;8.672;2023-04-19T05:56:10;102855.66;;;3.40;50.41
20656;BME280;10487;53.320;8.672;2023-04-19T05:59:12;102857.31;;;3.50;50.34
20656;BME280;10487;53.320;8.672;2023-04-19T06:02:15;102858.94;;;3.59;50.27
20656;BME280;10487;53.320;8.672;2023-04-19T06:05:16;102849.22;;;3.65;50.35
20656;BME280;10487;53.320;8.672;2023-04-19T06:08:18;102853.53;;;3.72;50.16
20656;BME280;10487;53.320;8.672;2023-04-19T06:11:20;102854.31;;;3.79;50.27
20656;BME280;10487;53.320;8.672;2023-04-19T06:14:29;102846.28;;;3.86;50.39
20656;BME280;10487;53.320;8.672;2023-04-19T06:17:31;102850.59;;;3.93;50.27
20656;BME280;10487;53.320;8.672;2023-04-19T06:20:32;102855.75;;;4.04;50.24
20656;BME280;10487;53.320;8.672;2023-04-19T06:23:34;102856.53;;;4.12;50.38
20656;BME280;10487;53.320;8.672;2023-04-19T06:26:36;102844.13;;;4.16;50.30
20656;BME280;10487;53.320;8.672;2023-04-19T06:29:37;102845.81;;;4.21;50.29
20656;BME280;10487;53.320;8.672;2023-04-19T06:32:39;102842.25;;;4.25;50.18
20656;BME280;10487;53.320;8.672;2023-04-19T06:35:41;102850.09;;;4.30;50.29
20656;BME280;10487;53.320;8.672;2023-04-19T06:38:42;102849.13;;;4.37;50.18
20656;BME280;10487;53.320;8.672;2023-04-19T06:41:46;102845.53;;;4.41;50.14
20656;BME280;10487;53.320;8.672;2023-04-19T06:44:48;102857.75;;;4.48;50.16
20656;BME280;10487;53.320;8.672;2023-04-19T06:47:49;102840.88;;;4.56;50.14
20656;BME280;10487;53.320;8.672;2023-04-19T06:50:51;102848.66;;;4.67;50.12
20656;BME280;10487;53.320;8.672;2023-04-19T06:53:53;102841.34;;;4.81;50.00
20656;BME280;10487;53.320;8.672;2023-04-19T06:56:55;102855.16;;;5.00;50.05
20656;BME280;10487;53.320;8.672;2023-04-19T06:59:56;102842.53;;;5.15;49.96
20656;BME280;10487;53.320;8.672;2023-04-19T07:02:58;102840.44;;;5.32;49.90
20656;BME280;10487;53.320;8.672;2023-04-19T07:06:02;102848.88;;;5.53;49.82
20656;BME280;10487;53.320;8.672;2023-04-19T07:09:04;102846.72;;;5.73;49.64
20656;BME280;10487;53.320;8.672;2023-04-19T07:12:06;102843.63;;;5.92;49.61
20656;BME280;10487;53.320;8.672;2023-04-19T07:15:08;102838.78;;;6.13;49.38
20656;BME280;10487;53.320;8.672;2023-04-19T07:18:10;102840.09;;;6.33;49.42
20656;BME280;10487;53.320;8.672;2023-04-19T07:21:15;102831.59;;;6.54;49.30
20656;BME280;10487;53.320;8.672;2023-04-19T07:24:16;102830.41;;;6.69;49.17
20656;BME280;10487;53.320;8.672;2023-04-19T07:27:18;102822.84;;;6.88;48.88
20656;BME280;10487;53.320;8.672;2023-04-19T07:30:20;102817.03;;;7.06;48.95
20656;BME280;10487;53.320;8.672;2023-04-19T07:33:22;102826.31;;;7.23;48.81
20656;BME280;10487;53.320;8.672;2023-04-19T07:36:28;102826.72;;;7.41;48.69
20656;BME280;10487;53.320;8.672;2023-04-19T07:39:31;102815.78;;;7.53;48.62
20656;BME280;10487;53.320;8.672;2023-04-19T07:42:32;102819.66;;;7.70;48.56
20656;BME280;10487;53.320;8.672;2023-04-19T07:45:34;102818.38;;;7.85;48.67
20656;BME280;10487;53.320;8.672;2023-04-19T07:48:36;102809.91;;;8.00;48.50
20656;BME280;10487;53.320;8.672;2023-04-19T07:51:38;102813.94;;;8.15;48.61
20656;BME280;10487;53.320;8.672;2023-04-19T07:54:40;102800.97;;;8.32;48.48
20656;BME280;10487;53.320;8.672;2023-04-19T07:57:41;102805.75;;;8.48;48.30
20656;BME280;10487;53.320;8.672;2023-04-19T08:00:48;102800.88;;;8.61;48.33
20656;BME280;10487;53.320;8.672;2023-04-19T08:03:50;102800.22;;;8.81;48.33
20656;BME280;10487;53.320;8.672;2023-04-19T08:06:52;102802.28;;;8.97;48.24
20656;BME280;10487;53.320;8.672;2023-04-19T08:09:53;102803.59;;;9.10;48.12
20656;BME280;10487;53.320;8.672;2023-04-19T08:12:56;102803.41;;;9.16;47.96
20656;BME280;10487;53.320;8.672;2023-04-19T08:16:05;102791.78;;;9.19;47.98
20656;BME280;10487;53.320;8.672;2023-04-19T08:19:10;102794.09;;;9.28;47.97
20656;BME280;10487;53.320;8.672;2023-04-19T08:22:12;102785.97;;;9.33;47.89
20656;BME280;10487;53.320;8.672;2023-04-19T08:25:13;102781.16;;;9.42;47.76
20656;BME280;10487;53.320;8.672;2023-04-19T08:28:16;102780.59;;;9.57;47.82
20656;BME280;10487;53.320;8.672;2023-04-19T08:31:18;102782.78;;;9.69;47.80
20656;BME280;10487;53.320;8.672;2023-04-19T08:34:21;102778.72;;;9.82;47.71
20656;BME280;10487;53.320;8.672;2023-04-19T08:37:22;102779.25;;;9.92;47.60
20656;BME280;10487;53.320;8.672;2023-04-19T08:40:24;102780.16;;;9.91;47.53
20656;BME280;10487;53.320;8.672;2023-04-19T08:43:29;102779.84;;;9.99;47.43
20656;BME280;10487;53.320;8.672;2023-04-19T08:46:33;102773.31;;;10.07;47.37
20656;BME280;10487;53.320;8.672;2023-04-19T08:49:38;102788.13;;;10.14;47.25
20656;BME280;10487;53.320;8.672;2023-04-19T08:52:43;102772.94;;;10.16;47.17
20656;BME280;10487;53.320;8.672;2023-04-19T08:55:57;102768.97;;;10.26;47.12
20656;BME280;10487;53.320;8.672;2023-04-19T08:59:02;102765.38;;;10.27;46.93
20656;BME280;10487;53.320;8.672;2023-04-19T09:02:18;102752.06;;;10.26;46.96
20656;BME280;10487;53.320;8.672;2023-04-19T09:05:20;102749.09;;;10.33;46.99
20656;BME280;10487;53.320;8.672;2023-04-19T09:08:25;102746.19;;;10.39;46.66
20656;BME280;10487;53.320;8.672;2023-04-19T09:11:36;102748.06;;;10.37;46.76
20656;BME280;10487;53.320;8.672;2023-04-19T09:14:44;102749.53;;;10.44;46.86
20656;BME280;10487;53.320;8.672;2023-04-19T09:18:08;102744.31;;;10.41;46.48
20656;BME280;10487;53.320;8.672;2023-04-19T09:21:26;102731.09;;;10.38;46.54
20656;BME280;10487;53.320;8.672;2023-04-19T09:24:37;102727.63;;;10.36;46.59
20656;BME280;10487;53.320;8.672;2023-04-19T09:28:12;102721.88;;;10.47;46.68
20656;BME280;10487;53.320;8.672;2023-04-19T09:31:14;102731.91;;;10.62;46.44
20656;BME280;10487;53.320;8.672;2023-04-19T09:34:24;102718.22;;;10.70;46.22
20656;BME280;10487;53.320;8.672;2023-04-19T09:37:26;102709.00;;;10.77;45.99
20656;BME280;10487;53.320;8.672;2023-04-19T09:40:48;102697.25;;;10.81;45.99
20656;BME280;10487;53.320;8.672;2023-04-19T09:43:51;102703.78;;;10.94;46.09
20656;BME280;10487;53.320;8.672;2023-04-19T09:46:56;102700.34;;;11.10;45.67
20656;BME280;10487;53.320;8.672;2023-04-19T09:50:08;102697.47;;;11.15;45.52
20656;BME280;10487;53.320;8.672;2023-04-19T09:53:24;102689.84;;;11.26;45.61
20656;BME280;10487;53.320;8.672;2023-04-19T09:56:26;102685.53;;;11.42;45.42
20656;BME280;10487;53.320;8.672;2023-04-19T09:59:27;102686.66;;;11.57;45.27
20656;BME280;10487;53.320;8.672;2023-04-19T10:02:30;102683.25;;;11.72;44.99
20656;BME280;10487;53.320;8.672;2023-04-19T10:05:33;102677.72;;;11.75;45.22
20656;BME280;10487;53.320;8.672;2023-04-19T10:08:36;102660.66;;;11.77;45.20
20656;BME280;10487;53.320;8.672;2023-04-19T10:11:38;102670.63;;;11.93;45.06
20656;BME280;10487;53.320;8.672;2023-04-19T10:14:41;102661.91;;;12.06;45.06
20656;BME280;10487;53.320;8.672;2023-04-19T10:17:43;102664.44;;;12.09;44.59
20656;BME280;10487;53.320;8.672;2023-04-19T10:23:50;102650.56;;;12.01;44.97
20656;BME280;10487;53.320;8.672;2023-04-19T10:27:11;102632.53;;;12.05;44.61
20656;BME280;10487;53.320;8.672;2023-04-19T10:30:20;102625.88;;;12.13;44.65
20656;BME280;10487;53.320;8.672;2023-04-19T10:33:27;102632.72;;;12.19;44.38
20656;BME280;10487;53.320;8.672;2023-04-19T10:36:28;102625.72;;;12.16;44.60
20656;BME280;10487;53.320;8.672;2023-04-19T10:39:41;102615.56;;;12.23;44.40
20656;BME280;10487;53.320;8.672;2023-04-19T10:49:22;102615.56;;;12.23;44.05
20656;BME280;10487;53.320;8.672;2023-04-19T10:52:27;102608.41;;;12.23;44.36
20656;BME280;10487;53.320;8.672;2023-04-19T10:55:32;102603.97;;;12.22;43.89
20656;BME280;10487;53.320;8.672;2023-04-19T11:05:23;102597.13;;;12.17;43.84
20656;BME280;10487;53.320;8.672;2023-04-19T11:08:25;102584.38;;;12.22;44.02
20656;BME280;10487;53.320;8.672;2023-04-19T11:11:26;102574.13;;;12.30;43.77
20656;BME280;10487;53.320;8.672;2023-04-19T11:14:33;102570.53;;;12.31;43.33
20656;BME280;10487;53.320;8.672;2023-04-19T11:17:35;102583.75;;;12.34;43.35
20656;BME280;10487;53.320;8.672;2023-04-19T11:20:41;102570.53;;;12.31;43.22
20656;BME280;10487;53.320;8.672;2023-04-19T11:23:43;102562.50;;;12.31;43.43
20656;BME280;10487;53.320;8.672;2023-04-19T11:26:45;102560.75;;;12.30;43.27
20656;BME280;10487;53.320;8.672;2023-04-19T11:29:47;102557.06;;;12.32;43.35
20656;BME280;10487;53.320;8.672;2023-04-19T11:32:51;102552.94;;;12.42;43.41
20656;BME280;10487;53.320;8.672;2023-04-19T11:35:54;102542.84;;;12.47;43.34
20656;BME280;10487;53.320;8.672;2023-04-19T11:38:56;102553.81;;;12.60;43.11
20656;BME280;10487;53.320;8.672;2023-04-19T11:41:57;102532.50;;;12.74;42.96
20656;BME280;10487;53.320;8.672;2023-04-19T11:44:59;102534.59;;;12.85;43.25
20656;BME280;10487;53.320;8.672;2023-04-19T11:48:03;102533.41;;;12.90;43.08
20656;BME280;10487;53.320;8.672;2023-04-19T11:51:05;102521.72;;;12.91;43.00
20656;BME280;10487;53.320;8.672;2023-04-19T11:54:15;102526.66;;;12.83;42.88
20656;BME280;10487;53.320;8.672;2023-04-19T11:57:30;102520.56;;;12.64;42.90
20656;BME280;10487;53.320;8.672;2023-04-19T12:00:32;102531.53;;;12.60;43.00
20656;BME280;10487;53.320;8.672;2023-04-19T12:03:39;102517.88;;;12.64;42.78
20656;BME280;10487;53.320;8.672;2023-04-19T12:06:42;102517.03;;;12.64;42.56
20656;BME280;10487;53.320;8.672;2023-04-19T12:09:47;102517.97;;;12.63;42.37
20656;BME280;10487;53.320;8.672;2023-04-19T12:12:49;102520.97;;;12.57;42.23
20656;BME280;10487;53.320;8.672;2023-04-19T12:15:52;102509.69;;;12.50;42.06
20656;BME280;10487;53.320;8.672;2023-04-19T12:18:53;102504.25;;;12.52;42.15
20656;BME280;10487;53.320;8.672;2023-04-19T12:22:10;102502.41;;;12.54;42.15
20656;BME280;10487;53.320;8.672;2023-04-19T12:25:12;102497.69;;;12.59;42.01
20656;BME280;10487;53.320;8.672;2023-04-19T12:28:15;102495.00;;;12.59;42.16
20656;BME280;10487;53.320;8.672;2023-04-19T12:31:17;102489.63;;;12.59;42.02
20656;BME280;10487;53.320;8.672;2023-04-19T12:34:18;102480.22;;;12.67;41.85
20656;BME280;10487;53.320;8.672;2023-04-19T12:37:20;102464.44;;;12.78;41.99
20656;BME280;10487;53.320;8.672;2023-04-19T12:40:22;102477.03;;;12.92;41.87
20656;BME280;10487;53.320;8.672;2023-04-19T12:43:24;102471.94;;;13.03;41.51
20656;BME280;10487;53.320;8.672;2023-04-19T12:46:26;102468.81;;;12.95;41.64
20656;BME280;10487;53.320;8.672;2023-04-19T12:49:28;102468.94;;;12.93;41.82
20656;BME280;10487;53.320;8.672;2023-04-19T12:52:29;102470.03;;;12.89;41.55
20656;BME280;10487;53.320;8.672;2023-04-19T12:55:31;102467.94;;;12.79;41.09
20656;BME280;10487;53.320;8.672;2023-04-19T12:58:32;102452.50;;;12.68;41.11
20656;BME280;10487;53.320;8.672;2023-04-19T13:01:34;102459.75;;;12.66;41.34
20656;BME280;10487;53.320;8.672;2023-04-19T13:04:36;102457.31;;;12.77;41.55
20656;BME280;10487;53.320;8.672;2023-04-19T13:07:38;102458.72;;;12.84;41.25
20656;BME280;10487;53.320;8.672;2023-04-19T13:10:39;102447.38;;;12.79;40.93
20656;BME280;10487;53.320;8.672;2023-04-19T13:13:41;102440.59;;;12.74;41.52
20656;BME280;10487;53.320;8.672;2023-04-19T13:16:42;102441.25;;;12.77;41.15
20656;BME280;10487;53.320;8.672;2023-04-19T13:19:44;102438.69;;;12.76;40.89
20656;BME280;10487;53.320;8.672;2023-04-19T13:22:46;102449.47;;;12.74;40.99
20656;BME280;10487;53.320;8.672;2023-04-19T13:25:47;102440.22;;;12.64;41.15
20656;BME280;10487;53.320;8.672;2023-04-19T13:28:49;102429.47;;;12.48;40.80
20656;BME280;10487;53.320;8.672;2023-04-19T13:31:51;102428.16;;;12.40;40.97
20656;BME280;10487;53.320;8.672;2023-04-19T13:34:52;102432.56;;;12.41;40.87
20656;BME280;10487;53.320;8.672;2023-04-19T13:37:54;102449.47;;;12.26;40.46
20656;BME280;10487;53.320;8.672;2023-04-19T13:40:56;102429.75;;;12.11;40.39
20656;BME280;10487;53.320;8.672;2023-04-19T13:43:59;102417.41;;;12.09;40.45
20656;BME280;10487;53.320;8.672;2023-04-19T13:47:01;102426.97;;;12.13;40.42
20656;BME280;10487;53.320;8.672;2023-04-19T13:50:02;102422.75;;;12.09;40.50
20656;BME280;10487;53.320;8.672;2023-04-19T13:53:04;102411.59;;;12.01;40.40
20656;BME280;10487;53.320;8.672;2023-04-19T13:56:06;102405.53;;;11.97;40.36
20656;BME280;10487;53.320;8.672;2023-04-19T13:59:11;102412.72;;;11.97;40.54
20656;BME280;10487;53.320;8.672;2023-04-19T14:02:13;102413.13;;;11.89;40.06
20656;BME280;10487;53.320;8.672;2023-04-19T14:05:15;102405.25;;;11.86;40.37
20656;BME280;10487;53.320;8.672;2023-04-19T14:08:16;102398.16;;;11.85;40.04
20656;BME280;10487;53.320;8.672;2023-04-19T14:11:18;102426.72;;;11.84;40.04
20656;BME280;10487;53.320;8.672;2023-04-19T14:14:20;102413.59;;;11.80;39.90
20656;BME280;10487;53.320;8.672;2023-04-19T14:17:22;102412.28;;;11.71;39.96
20656;BME280;10487;53.320;8.672;2023-04-19T14:20:23;102413.34;;;11.67;39.99
20656;BME280;10487;53.320;8.672;2023-04-19T14:23:25;102397.56;;;11.63;39.90
20656;BME280;10487;53.320;8.672;2023-04-19T14:26:27;102429.75;;;11.61;39.48
20656;BME280;10487;53.320;8.672;2023-04-19T14:29:29;102416.00;;;11.50;39.22
20656;BME280;10487;53.320;8.672;2023-04-19T14:32:30;102415.56;;;11.42;39.15
20656;BME280;10487;53.320;8.672;2023-04-19T14:35:32;102413.19;;;11.36;39.11
20656;BME280;10487;53.320;8.672;2023-04-19T14:38:34;102410.81;;;11.30;39.38
20656;BME280;10487;53.320;8.672;2023-04-19T14:41:36;102400.22;;;11.29;39.41
20656;BME280;10487;53.320;8.672;2023-04-19T14:44:37;102401.88;;;11.31;39.40
20656;BME280;10487;53.320;8.672;2023-04-19T14:47:39;102389.13;;;11.36;39.47
20656;BME280;10487;53.320;8.672;2023-04-19T14:50:41;102412.88;;;11.42;39.47
20656;BME280;10487;53.320;8.672;2023-04-19T14:53:42;102397.88;;;11.40;39.18
20656;BME280;10487;53.320;8.672;2023-04-19T14:56:44;102405.16;;;11.36;39.03
20656;BME280;10487;53.320;8.672;2023-04-19T14:59:45;102410.75;;;11.32;38.94
20656;BME280;10487;53.320;8.672;2023-04-19T15:02:47;102405.31;;;11.16;38.71
20656;BME280;10487;53.320;8.672;2023-04-19T15:05:49;102406.78;;;11.04;39.02
20656;BME280;10487;53.320;8.672;2023-04-19T15:08:51;102400.16;;;10.94;39.00
20656;BME280;10487;53.320;8.672;2023-04-19T15:11:52;102403.22;;;10.87;38.83
20656;BME280;10487;53.320;8.672;2023-04-19T15:14:54;102408.00;;;10.80;38.69
20656;BME280;10487;53.320;8.672;2023-04-19T15:17:55;102411.03;;;10.73;38.58
20656;BME280;10487;53.320;8.672;2023-04-19T15:20:57;102415.16;;;10.61;38.41
20656;BME280;10487;53.320;8.672;2023-04-19T15:23:59;102403.97;;;10.53;38.41
20656;BME280;10487;53.320;8.672;2023-04-19T15:27:02;102410.47;;;10.47;38.15
20656;BME280;10487;53.320;8.672;2023-04-19T15:30:05;102393.91;;;10.39;38.11
20656;BME280;10487;53.320;8.672;2023-04-19T15:33:07;102406.75;;;10.31;37.85
20656;BME280;10487;53.320;8.672;2023-04-19T15:36:09;102406.09;;;10.26;37.84
20656;BME280;10487;53.320;8.672;2023-04-19T15:39:10;102407.22;;;10.21;37.91
20656;BME280;10487;53.320;8.672;2023-04-19T15:42:12;102407.41;;;10.18;37.99
20656;BME280;10487;53.320;8.672;2023-04-19T15:45:14;102401.31;;;10.14;37.74
20656;BME280;10487;53.320;8.672;2023-04-19T15:48:16;102406.13;;;10.06;37.80
20656;BME280;10487;53.320;8.672;2023-04-19T15:51:18;102417.09;;;10.00;37.79
20656;BME280;10487;53.320;8.672;2023-04-19T15:54:19;102402.22;;;9.95;37.88
20656;BME280;10487;53.320;8.672;2023-04-19T15:57:23;102405.03;;;9.91;37.91
20656;BME280;10487;53.320;8.672;2023-04-19T16:00:25;102404.97;;;9.93;37.94
20656;BME280;10487;53.320;8.672;2023-04-19T16:03:27;102416.44;;;9.95;37.89
20656;BME280;10487;53.320;8.672;2023-04-19T16:06:29;102413.97;;;9.90;37.78
20656;BME280;10487;53.320;8.672;2023-04-19T16:09:30;102422.31;;;9.83;37.61
20656;BME280;10487;53.320;8.672;2023-04-19T16:12:32;102407.53;;;9.76;37.53
20656;BME280;10487;53.320;8.672;2023-04-19T16:15:33;102419.19;;;9.73;37.50
20656;BME280;10487;53.320;8.672;2023-04-19T16:18:35;102413.22;;;9.68;37.23